Route Details

Aircraft Information
Group: Trans-Pacific Ops
Types: B744, MD11
Route Data
Distance: 4065nm
Duration: 10h 00m
Origin METAR: PANC 080053Z 10004KT 10SM -SN OVC042 M04/M06 A2951 RMK AO2 SNE35B53 SLP996 P0000 T10391061
Dest. METAR: RCTP 080030Z 04016KT 9999 SCT006 BKN050 18/17 Q1019 NOSIG RMK A3010
Freight Data
(for Feb 8, 2023)
Load Factor:
4.6%
Manifested Cargo: 9,269lbs
Financial History
Total Freight: 85,590lbs
Average Load: 0lbs/flt
Fuel Used: 201,732lbs
Avg. Fuel Used: 0lbs/flt
Fuel Expense: $262,252
Avg. Fuel Expense: $0
Avg. Fuel Cost: $0/lbs
Total Gross Income: $187,442
Pilot Pay: $229
Total Expenses: $20,296
Total Revenue: $-97,583
Average Revenue: $0

Capitol Logistics 839




PANC
Ted Stevens Anchorage International Airport
Anchorage, Alaska
RCTP
Taiwan Taoyuan International Airport
Taipei,

Activity Log

Date Flight Route Aircraft Duration
03/17/2021 CPX18 NODLE R220 NANNO ALICE Y111 MQE Y124 GTC Y12 KEC A1 AISAR A1 DRAKE DRAKE1A B744 10h 22m